Port Barre, Louisiana
Current Conditions -  °F | °C
As of 7:55 PM on Friday 24 Oct 2014 (Local Time) from KOPL Reporting Station
Overcast Overcast  
Wind Chill: 14°   Ceiling: 200
Heat Index: 14°   Visibility: 10mi
Dew Point: 12°   Wind: 0mph
Humidity: 83%   Direction: NA
Pressure: 30.1"   Gusts: NA
Location:  30.56°N, 91.95°W
Report Text: KOPL 250055Z AUTO 00000KT 10SM OVC002 14/12 A3010 RMK AO2 T01430115
Loading
Personal Weather Stations






























Interactive Weather Map
Tropical Storm Tracking
New forecast layout! Learn more

10-Day Weather Forecast

Advertisements
Track Severe Weather on mobile